sensor_id;sensor_type;location;lat;lon;timestamp;P1;durP1;ratioP1;P2;durP2;ratioP2
19199;SDS011;9732;52.498;5.408;2022-08-05T00:01:56;3.55;;;1.63;;
19199;SDS011;9732;52.498;5.408;2022-08-05T00:04:23;4.35;;;1.88;;
19199;SDS011;9732;52.498;5.408;2022-08-05T00:06:50;3.97;;;1.90;;
19199;SDS011;9732;52.498;5.408;2022-08-05T00:09:16;3.50;;;1.70;;
19199;SDS011;9732;52.498;5.408;2022-08-05T00:11:43;5.60;;;1.75;;
19199;SDS011;9732;52.498;5.408;2022-08-05T00:14:10;5.68;;;2.00;;
19199;SDS011;9732;52.498;5.408;2022-08-05T00:16:37;5.32;;;1.60;;
19199;SDS011;9732;52.498;5.408;2022-08-05T00:19:05;7.78;;;1.73;;
19199;SDS011;9732;52.498;5.408;2022-08-05T00:21:31;8.32;;;1.67;;
19199;SDS011;9732;52.498;5.408;2022-08-05T00:23:58;4.68;;;1.52;;
19199;SDS011;9732;52.498;5.408;2022-08-05T00:26:25;5.53;;;1.80;;
19199;SDS011;9732;52.498;5.408;2022-08-05T00:28:52;9.77;;;1.60;;
19199;SDS011;9732;52.498;5.408;2022-08-05T00:31:18;4.18;;;1.60;;
19199;SDS011;9732;52.498;5.408;2022-08-05T00:33:45;4.50;;;1.80;;
19199;SDS011;9732;52.498;5.408;2022-08-05T00:36:13;6.15;;;1.60;;
19199;SDS011;9732;52.498;5.408;2022-08-05T00:38:40;5.07;;;1.95;;
19199;SDS011;9732;52.498;5.408;2022-08-05T00:41:08;2.47;;;1.30;;
19199;SDS011;9732;52.498;5.408;2022-08-05T00:43:35;7.70;;;1.77;;
19199;SDS011;9732;52.498;5.408;2022-08-05T00:46:01;7.35;;;1.50;;
19199;SDS011;9732;52.498;5.408;2022-08-05T00:48:28;1.80;;;1.38;;
19199;SDS011;9732;52.498;5.408;2022-08-05T00:50:55;9.13;;;1.38;;
19199;SDS011;9732;52.498;5.408;2022-08-05T00:53:23;6.30;;;1.65;;
19199;SDS011;9732;52.498;5.408;2022-08-05T00:55:50;3.58;;;1.50;;
19199;SDS011;9732;52.498;5.408;2022-08-05T00:58:17;5.82;;;1.67;;
19199;SDS011;9732;52.498;5.408;2022-08-05T01:00:44;3.33;;;1.70;;
19199;SDS011;9732;52.498;5.408;2022-08-05T01:03:12;5.38;;;1.50;;
19199;SDS011;9732;52.498;5.408;2022-08-05T01:05:39;4.55;;;1.80;;
19199;SDS011;9732;52.498;5.408;2022-08-05T01:08:06;7.93;;;1.80;;
19199;SDS011;9732;52.498;5.408;2022-08-05T01:10:39;7.15;;;1.70;;
19199;SDS011;9732;52.498;5.408;2022-08-05T01:13:12;2.05;;;1.42;;
19199;SDS011;9732;52.498;5.408;2022-08-05T01:15:48;4.32;;;1.77;;
19199;SDS011;9732;52.498;5.408;2022-08-05T01:18:22;3.92;;;1.85;;
19199;SDS011;9732;52.498;5.408;2022-08-05T01:20:52;4.97;;;2.00;;
19199;SDS011;9732;52.498;5.408;2022-08-05T01:23:34;7.63;;;2.20;;
19199;SDS011;9732;52.498;5.408;2022-08-05T01:26:16;4.82;;;1.73;;
19199;SDS011;9732;52.498;5.408;2022-08-05T01:28:52;6.63;;;2.13;;
19199;SDS011;9732;52.498;5.408;2022-08-05T01:31:23;7.53;;;2.22;;
19199;SDS011;9732;52.498;5.408;2022-08-05T01:33:55;3.08;;;1.52;;
19199;SDS011;9732;52.498;5.408;2022-08-05T01:36:28;5.25;;;1.60;;
19199;SDS011;9732;52.498;5.408;2022-08-05T01:38:57;6.60;;;2.00;;
19199;SDS011;9732;52.498;5.408;2022-08-05T01:41:25;3.08;;;1.70;;
19199;SDS011;9732;52.498;5.408;2022-08-05T01:43:55;5.47;;;1.80;;
19199;SDS011;9732;52.498;5.408;2022-08-05T01:46:23;6.43;;;2.20;;
19199;SDS011;9732;52.498;5.408;2022-08-05T01:48:51;6.70;;;2.35;;
19199;SDS011;9732;52.498;5.408;2022-08-05T01:51:19;7.45;;;1.80;;
19199;SDS011;9732;52.498;5.408;2022-08-05T01:53:47;6.18;;;2.05;;
19199;SDS011;9732;52.498;5.408;2022-08-05T01:56:16;5.60;;;1.88;;
19199;SDS011;9732;52.498;5.408;2022-08-05T01:58:44;4.00;;;1.95;;
19199;SDS011;9732;52.498;5.408;2022-08-05T02:01:13;4.45;;;2.13;;
19199;SDS011;9732;52.498;5.408;2022-08-05T02:03:43;3.75;;;1.80;;
19199;SDS011;9732;52.498;5.408;2022-08-05T02:06:12;3.67;;;1.85;;
19199;SDS011;9732;52.498;5.408;2022-08-05T02:08:40;3.40;;;1.77;;
19199;SDS011;9732;52.498;5.408;2022-08-05T02:11:09;3.20;;;1.63;;
19199;SDS011;9732;52.498;5.408;2022-08-05T02:13:37;6.22;;;1.80;;
19199;SDS011;9732;52.498;5.408;2022-08-05T02:16:12;2.83;;;1.90;;
19199;SDS011;9732;52.498;5.408;2022-08-05T02:18:46;5.43;;;1.60;;
19199;SDS011;9732;52.498;5.408;2022-08-05T02:21:16;6.07;;;1.80;;
19199;SDS011;9732;52.498;5.408;2022-08-05T02:23:45;2.65;;;1.70;;
19199;SDS011;9732;52.498;5.408;2022-08-05T02:26:19;4.43;;;1.70;;
19199;SDS011;9732;52.498;5.408;2022-08-05T02:28:48;6.30;;;1.80;;
19199;SDS011;9732;52.498;5.408;2022-08-05T02:31:18;7.15;;;1.77;;
19199;SDS011;9732;52.498;5.408;2022-08-05T02:33:50;5.15;;;1.77;;
19199;SDS011;9732;52.498;5.408;2022-08-05T02:36:19;2.28;;;1.60;;
19199;SDS011;9732;52.498;5.408;2022-08-05T02:38:48;7.28;;;1.85;;
19199;SDS011;9732;52.498;5.408;2022-08-05T02:41:17;5.18;;;1.67;;
19199;SDS011;9732;52.498;5.408;2022-08-05T02:43:46;2.30;;;1.50;;
19199;SDS011;9732;52.498;5.408;2022-08-05T02:46:14;4.60;;;1.48;;
19199;SDS011;9732;52.498;5.408;2022-08-05T02:48:44;5.63;;;1.60;;
19199;SDS011;9732;52.498;5.408;2022-08-05T02:51:12;8.43;;;2.03;;
19199;SDS011;9732;52.498;5.408;2022-08-05T02:53:40;2.70;;;1.60;;
19199;SDS011;9732;52.498;5.408;2022-08-05T02:56:08;4.95;;;1.60;;
19199;SDS011;9732;52.498;5.408;2022-08-05T02:58:37;5.35;;;1.65;;
19199;SDS011;9732;52.498;5.408;2022-08-05T03:01:05;8.20;;;2.17;;
19199;SDS011;9732;52.498;5.408;2022-08-05T03:03:36;10.10;;;1.90;;
19199;SDS011;9732;52.498;5.408;2022-08-05T03:06:07;5.80;;;2.20;;
19199;SDS011;9732;52.498;5.408;2022-08-05T03:08:35;6.10;;;1.52;;
19199;SDS011;9732;52.498;5.408;2022-08-05T03:11:03;2.72;;;1.83;;
19199;SDS011;9732;52.498;5.408;2022-08-05T03:13:41;4.97;;;1.90;;
19199;SDS011;9732;52.498;5.408;2022-08-05T03:16:07;3.03;;;1.70;;
19199;SDS011;9732;52.498;5.408;2022-08-05T03:18:34;4.63;;;1.50;;
19199;SDS011;9732;52.498;5.408;2022-08-05T03:21:01;6.63;;;1.95;;
19199;SDS011;9732;52.498;5.408;2022-08-05T03:23:29;4.35;;;1.75;;
19199;SDS011;9732;52.498;5.408;2022-08-05T03:25:57;5.65;;;1.77;;
19199;SDS011;9732;52.498;5.408;2022-08-05T03:28:24;5.57;;;1.70;;
19199;SDS011;9732;52.498;5.408;2022-08-05T03:30:51;2.85;;;1.60;;
19199;SDS011;9732;52.498;5.408;2022-08-05T03:33:19;3.72;;;1.80;;
19199;SDS011;9732;52.498;5.408;2022-08-05T03:35:46;4.22;;;1.30;;
19199;SDS011;9732;52.498;5.408;2022-08-05T03:38:13;4.00;;;1.83;;
19199;SDS011;9732;52.498;5.408;2022-08-05T03:40:41;5.13;;;2.33;;
19199;SDS011;9732;52.498;5.408;2022-08-05T03:43:09;5.65;;;1.58;;
19199;SDS011;9732;52.498;5.408;2022-08-05T03:45:35;4.20;;;1.60;;
19199;SDS011;9732;52.498;5.408;2022-08-05T03:48:02;6.07;;;1.98;;
19199;SDS011;9732;52.498;5.408;2022-08-05T03:50:32;7.47;;;1.75;;
19199;SDS011;9732;52.498;5.408;2022-08-05T03:53:06;3.42;;;1.63;;
19199;SDS011;9732;52.498;5.408;2022-08-05T03:55:38;6.07;;;1.50;;
19199;SDS011;9732;52.498;5.408;2022-08-05T03:58:11;6.30;;;1.55;;
19199;SDS011;9732;52.498;5.408;2022-08-05T04:00:41;4.50;;;1.45;;
19199;SDS011;9732;52.498;5.408;2022-08-05T04:03:09;4.50;;;1.63;;
19199;SDS011;9732;52.498;5.408;2022-08-05T04:05:38;3.45;;;1.65;;
19199;SDS011;9732;52.498;5.408;2022-08-05T04:08:07;4.30;;;1.50;;
19199;SDS011;9732;52.498;5.408;2022-08-05T04:10:36;7.13;;;1.70;;
19199;SDS011;9732;52.498;5.408;2022-08-05T04:13:04;4.30;;;1.65;;
19199;SDS011;9732;52.498;5.408;2022-08-05T04:15:32;6.53;;;2.03;;
19199;SDS011;9732;52.498;5.408;2022-08-05T04:18:00;4.70;;;1.77;;
19199;SDS011;9732;52.498;5.408;2022-08-05T04:20:27;3.60;;;1.80;;
19199;SDS011;9732;52.498;5.408;2022-08-05T04:22:54;5.03;;;1.90;;
19199;SDS011;9732;52.498;5.408;2022-08-05T04:25:21;2.95;;;1.83;;
19199;SDS011;9732;52.498;5.408;2022-08-05T04:27:47;3.17;;;1.50;;
19199;SDS011;9732;52.498;5.408;2022-08-05T04:30:15;3.88;;;1.90;;
19199;SDS011;9732;52.498;5.408;2022-08-05T04:32:42;6.22;;;2.03;;
19199;SDS011;9732;52.498;5.408;2022-08-05T04:35:09;2.20;;;1.52;;
19199;SDS011;9732;52.498;5.408;2022-08-05T04:37:35;3.38;;;1.60;;
19199;SDS011;9732;52.498;5.408;2022-08-05T04:40:03;3.88;;;1.50;;
19199;SDS011;9732;52.498;5.408;2022-08-05T04:42:31;2.83;;;1.38;;
19199;SDS011;9732;52.498;5.408;2022-08-05T04:44:57;15.57;;;2.22;;
19199;SDS011;9732;52.498;5.408;2022-08-05T04:47:25;4.50;;;1.55;;
19199;SDS011;9732;52.498;5.408;2022-08-05T04:49:52;4.18;;;1.48;;
19199;SDS011;9732;52.498;5.408;2022-08-05T04:52:19;3.72;;;1.50;;
19199;SDS011;9732;52.498;5.408;2022-08-05T04:54:46;3.20;;;1.70;;
19199;SDS011;9732;52.498;5.408;2022-08-05T04:57:12;3.42;;;1.70;;
19199;SDS011;9732;52.498;5.408;2022-08-05T04:59:39;3.05;;;1.58;;
19199;SDS011;9732;52.498;5.408;2022-08-05T05:02:06;6.25;;;1.70;;
19199;SDS011;9732;52.498;5.408;2022-08-05T05:04:34;4.30;;;1.70;;
19199;SDS011;9732;52.498;5.408;2022-08-05T05:07:01;5.22;;;1.60;;
19199;SDS011;9732;52.498;5.408;2022-08-05T05:09:28;4.88;;;1.80;;
19199;SDS011;9732;52.498;5.408;2022-08-05T05:11:55;5.32;;;1.42;;
19199;SDS011;9732;52.498;5.408;2022-08-05T05:14:21;6.93;;;1.60;;
19199;SDS011;9732;52.498;5.408;2022-08-05T05:16:48;6.38;;;1.50;;
19199;SDS011;9732;52.498;5.408;2022-08-05T05:19:15;7.18;;;1.80;;
19199;SDS011;9732;52.498;5.408;2022-08-05T05:21:43;3.05;;;1.42;;
19199;SDS011;9732;52.498;5.408;2022-08-05T05:24:10;4.45;;;1.65;;
19199;SDS011;9732;52.498;5.408;2022-08-05T05:26:38;4.95;;;1.38;;
19199;SDS011;9732;52.498;5.408;2022-08-05T05:29:04;3.22;;;1.40;;
19199;SDS011;9732;52.498;5.408;2022-08-05T05:31:31;2.95;;;1.58;;
19199;SDS011;9732;52.498;5.408;2022-08-05T05:33:58;8.68;;;1.40;;
19199;SDS011;9732;52.498;5.408;2022-08-05T05:36:25;3.15;;;1.40;;
19199;SDS011;9732;52.498;5.408;2022-08-05T05:38:53;4.38;;;1.60;;
19199;SDS011;9732;52.498;5.408;2022-08-05T05:41:21;3.70;;;1.33;;
19199;SDS011;9732;52.498;5.408;2022-08-05T05:43:47;2.70;;;1.52;;
19199;SDS011;9732;52.498;5.408;2022-08-05T05:46:14;2.40;;;1.40;;
19199;SDS011;9732;52.498;5.408;2022-08-05T05:48:41;6.30;;;1.48;;
19199;SDS011;9732;52.498;5.408;2022-08-05T05:51:07;2.88;;;1.15;;
19199;SDS011;9732;52.498;5.408;2022-08-05T05:53:34;4.38;;;1.25;;
19199;SDS011;9732;52.498;5.408;2022-08-05T05:56:02;3.30;;;1.60;;
19199;SDS011;9732;52.498;5.408;2022-08-05T05:58:29;9.07;;;1.85;;
19199;SDS011;9732;52.498;5.408;2022-08-05T06:00:56;2.08;;;1.23;;
19199;SDS011;9732;52.498;5.408;2022-08-05T06:03:23;2.22;;;1.15;;
19199;SDS011;9732;52.498;5.408;2022-08-05T06:05:49;2.25;;;1.15;;
19199;SDS011;9732;52.498;5.408;2022-08-05T06:08:16;2.50;;;1.23;;
19199;SDS011;9732;52.498;5.408;2022-08-05T06:10:43;1.92;;;1.20;;
19199;SDS011;9732;52.498;5.408;2022-08-05T06:13:11;3.90;;;1.55;;
19199;SDS011;9732;52.498;5.408;2022-08-05T06:15:38;2.72;;;1.27;;
19199;SDS011;9732;52.498;5.408;2022-08-05T06:18:04;2.28;;;1.20;;
19199;SDS011;9732;52.498;5.408;2022-08-05T06:20:31;4.20;;;1.13;;
19199;SDS011;9732;52.498;5.408;2022-08-05T06:22:58;3.03;;;1.10;;
19199;SDS011;9732;52.498;5.408;2022-08-05T06:25:25;2.97;;;1.20;;
19199;SDS011;9732;52.498;5.408;2022-08-05T06:27:52;2.13;;;1.15;;
19199;SDS011;9732;52.498;5.408;2022-08-05T06:30:20;4.00;;;1.15;;
19199;SDS011;9732;52.498;5.408;2022-08-05T06:32:47;3.92;;;1.30;;
19199;SDS011;9732;52.498;5.408;2022-08-05T06:35:13;2.28;;;1.23;;
19199;SDS011;9732;52.498;5.408;2022-08-05T06:37:40;2.30;;;1.20;;
19199;SDS011;9732;52.498;5.408;2022-08-05T06:40:07;3.17;;;1.10;;
19199;SDS011;9732;52.498;5.408;2022-08-05T06:42:35;3.17;;;1.40;;
19199;SDS011;9732;52.498;5.408;2022-08-05T06:45:02;5.88;;;1.30;;
19199;SDS011;9732;52.498;5.408;2022-08-05T06:47:31;2.38;;;1.13;;
19199;SDS011;9732;52.498;5.408;2022-08-05T06:49:58;2.88;;;1.20;;
19199;SDS011;9732;52.498;5.408;2022-08-05T06:52:24;1.98;;;1.02;;
19199;SDS011;9732;52.498;5.408;2022-08-05T06:54:51;4.65;;;1.00;;
19199;SDS011;9732;52.498;5.408;2022-08-05T06:57:18;4.30;;;1.23;;
19199;SDS011;9732;52.498;5.408;2022-08-05T06:59:44;2.03;;;0.90;;
19199;SDS011;9732;52.498;5.408;2022-08-05T07:02:11;1.55;;;1.15;;
19199;SDS011;9732;52.498;5.408;2022-08-05T07:04:39;3.47;;;1.10;;
19199;SDS011;9732;52.498;5.408;2022-08-05T07:07:06;1.60;;;0.80;;
19199;SDS011;9732;52.498;5.408;2022-08-05T07:09:32;2.65;;;0.90;;
19199;SDS011;9732;52.498;5.408;2022-08-05T07:11:59;3.25;;;1.00;;
19199;SDS011;9732;52.498;5.408;2022-08-05T07:14:26;5.05;;;1.27;;
19199;SDS011;9732;52.498;5.408;2022-08-05T07:17:10;2.50;;;0.88;;
19199;SDS011;9732;52.498;5.408;2022-08-05T07:19:37;3.63;;;0.80;;
19199;SDS011;9732;52.498;5.408;2022-08-05T07:22:05;2.40;;;0.75;;
19199;SDS011;9732;52.498;5.408;2022-08-05T07:24:32;1.58;;;0.73;;
19199;SDS011;9732;52.498;5.408;2022-08-05T07:26:58;1.05;;;0.80;;
19199;SDS011;9732;52.498;5.408;2022-08-05T07:29:25;2.83;;;0.82;;
19199;SDS011;9732;52.498;5.408;2022-08-05T07:31:52;4.30;;;1.48;;
19199;SDS011;9732;52.498;5.408;2022-08-05T07:34:18;1.63;;;0.80;;
19199;SDS011;9732;52.498;5.408;2022-08-05T07:36:45;2.97;;;0.88;;
19199;SDS011;9732;52.498;5.408;2022-08-05T07:39:13;4.55;;;1.10;;
19199;SDS011;9732;52.498;5.408;2022-08-05T07:41:40;2.95;;;0.90;;
19199;SDS011;9732;52.498;5.408;2022-08-05T07:44:08;5.72;;;1.35;;
19199;SDS011;9732;52.498;5.408;2022-08-05T07:46:35;3.08;;;0.90;;
19199;SDS011;9732;52.498;5.408;2022-08-05T07:49:02;4.45;;;0.85;;
19199;SDS011;9732;52.498;5.408;2022-08-05T07:51:29;2.17;;;1.17;;
19199;SDS011;9732;52.498;5.408;2022-08-05T07:53:56;2.65;;;0.85;;
19199;SDS011;9732;52.498;5.408;2022-08-05T07:56:24;4.22;;;0.80;;
19199;SDS011;9732;52.498;5.408;2022-08-05T07:58:51;4.00;;;1.10;;
19199;SDS011;9732;52.498;5.408;2022-08-05T08:01:18;3.28;;;0.95;;
19199;SDS011;9732;52.498;5.408;2022-08-05T08:03:46;5.53;;;0.68;;
19199;SDS011;9732;52.498;5.408;2022-08-05T08:06:12;1.05;;;0.60;;
19199;SDS011;9732;52.498;5.408;2022-08-05T08:08:39;4.32;;;0.90;;
19199;SDS011;9732;52.498;5.408;2022-08-05T08:11:06;4.85;;;0.85;;
19199;SDS011;9732;52.498;5.408;2022-08-05T08:13:34;4.18;;;0.80;;
19199;SDS011;9732;52.498;5.408;2022-08-05T08:16:01;2.38;;;0.88;;
19199;SDS011;9732;52.498;5.408;2022-08-05T08:18:28;1.65;;;0.70;;
19199;SDS011;9732;52.498;5.408;2022-08-05T08:20:56;3.30;;;0.80;;
19199;SDS011;9732;52.498;5.408;2022-08-05T08:23:23;4.30;;;0.82;;
19199;SDS011;9732;52.498;5.408;2022-08-05T08:25:49;1.88;;;0.80;;
19199;SDS011;9732;52.498;5.408;2022-08-05T08:28:16;2.00;;;0.70;;
19199;SDS011;9732;52.498;5.408;2022-08-05T08:30:44;1.25;;;0.70;;
19199;SDS011;9732;52.498;5.408;2022-08-05T08:33:11;3.38;;;0.70;;
19199;SDS011;9732;52.498;5.408;2022-08-05T08:35:38;2.97;;;0.80;;
19199;SDS011;9732;52.498;5.408;2022-08-05T08:38:04;1.27;;;0.60;;
19199;SDS011;9732;52.498;5.408;2022-08-05T08:40:32;2.70;;;0.70;;
19199;SDS011;9732;52.498;5.408;2022-08-05T08:43:00;1.58;;;0.68;;
19199;SDS011;9732;52.498;5.408;2022-08-05T08:45:28;1.15;;;0.52;;
19199;SDS011;9732;52.498;5.408;2022-08-05T08:47:57;2.80;;;0.55;;
19199;SDS011;9732;52.498;5.408;2022-08-05T08:50:29;4.35;;;0.60;;
19199;SDS011;9732;52.498;5.408;2022-08-05T08:52:59;4.38;;;0.70;;
19199;SDS011;9732;52.498;5.408;2022-08-05T08:55:28;0.82;;;0.60;;
19199;SDS011;9732;52.498;5.408;2022-08-05T08:57:56;2.47;;;0.63;;
19199;SDS011;9732;52.498;5.408;2022-08-05T09:00:23;1.85;;;0.65;;
19199;SDS011;9732;52.498;5.408;2022-08-05T09:02:51;3.38;;;0.68;;
19199;SDS011;9732;52.498;5.408;2022-08-05T09:05:20;1.48;;;0.47;;
19199;SDS011;9732;52.498;5.408;2022-08-05T09:07:47;4.13;;;0.88;;
19199;SDS011;9732;52.498;5.408;2022-08-05T09:10:15;0.75;;;0.32;;
19199;SDS011;9732;52.498;5.408;2022-08-05T09:12:42;1.35;;;0.47;;
19199;SDS011;9732;52.498;5.408;2022-08-05T09:15:09;2.95;;;0.55;;
19199;SDS011;9732;52.498;5.408;2022-08-05T09:17:36;1.88;;;0.70;;
19199;SDS011;9732;52.498;5.408;2022-08-05T09:20:03;3.03;;;0.40;;
19199;SDS011;9732;52.498;5.408;2022-08-05T09:25:36;1.65;;;0.45;;
19199;SDS011;9732;52.498;5.408;2022-08-05T09:28:14;2.10;;;0.32;;
19199;SDS011;9732;52.498;5.408;2022-08-05T09:30:51;0.75;;;0.30;;
19199;SDS011;9732;52.498;5.408;2022-08-05T09:33:19;2.08;;;0.40;;
19199;SDS011;9732;52.498;5.408;2022-08-05T09:35:57;1.00;;;0.28;;
19199;SDS011;9732;52.498;5.408;2022-08-05T09:38:26;2.30;;;0.30;;
19199;SDS011;9732;52.498;5.408;2022-08-05T09:40:54;2.67;;;0.60;;
19199;SDS011;9732;52.498;5.408;2022-08-05T09:43:28;1.08;;;0.43;;
19199;SDS011;9732;52.498;5.408;2022-08-05T09:45:57;2.92;;;0.30;;
19199;SDS011;9732;52.498;5.408;2022-08-05T09:48:24;3.17;;;0.70;;
19199;SDS011;9732;52.498;5.408;2022-08-05T09:50:53;1.88;;;0.40;;
19199;SDS011;9732;52.498;5.408;2022-08-05T09:53:21;1.55;;;0.30;;
19199;SDS011;9732;52.498;5.408;2022-08-05T09:55:52;1.30;;;0.45;;
19199;SDS011;9732;52.498;5.408;2022-08-05T09:58:21;2.17;;;0.50;;
19199;SDS011;9732;52.498;5.408;2022-08-05T10:00:56;2.13;;;0.50;;
19199;SDS011;9732;52.498;5.408;2022-08-05T10:03:24;0.65;;;0.38;;
19199;SDS011;9732;52.498;5.408;2022-08-05T10:06:02;0.38;;;0.30;;
19199;SDS011;9732;52.498;5.408;2022-08-05T10:08:30;0.75;;;0.50;;
19199;SDS011;9732;52.498;5.408;2022-08-05T10:10:58;2.03;;;0.43;;
19199;SDS011;9732;52.498;5.408;2022-08-05T10:13:29;1.38;;;0.43;;
19199;SDS011;9732;52.498;5.408;2022-08-05T10:15:57;0.57;;;0.30;;
19199;SDS011;9732;52.498;5.408;2022-08-05T10:18:24;1.25;;;0.35;;
19199;SDS011;9732;52.498;5.408;2022-08-05T10:20:53;1.00;;;0.30;;
19199;SDS011;9732;52.498;5.408;2022-08-05T10:23:22;1.92;;;0.45;;
19199;SDS011;9732;52.498;5.408;2022-08-05T10:25:52;1.38;;;0.50;;
19199;SDS011;9732;52.498;5.408;2022-08-05T10:28:21;2.35;;;0.30;;
19199;SDS011;9732;52.498;5.408;2022-08-05T10:30:49;0.70;;;0.35;;
19199;SDS011;9732;52.498;5.408;2022-08-05T10:33:17;1.65;;;0.38;;
19199;SDS011;9732;52.498;5.408;2022-08-05T10:35:44;1.45;;;0.35;;
19199;SDS011;9732;52.498;5.408;2022-08-05T10:38:11;0.60;;;0.28;;
19199;SDS011;9732;52.498;5.408;2022-08-05T10:40:40;1.40;;;0.50;;
19199;SDS011;9732;52.498;5.408;2022-08-05T10:43:16;1.38;;;0.40;;
19199;SDS011;9732;52.498;5.408;2022-08-05T10:46:00;1.65;;;0.40;;
19199;SDS011;9732;52.498;5.408;2022-08-05T10:48:29;2.00;;;0.50;;
19199;SDS011;9732;52.498;5.408;2022-08-05T10:50:58;1.27;;;0.40;;
19199;SDS011;9732;52.498;5.408;2022-08-05T10:53:31;4.63;;;0.63;;
19199;SDS011;9732;52.498;5.408;2022-08-05T10:56:00;1.00;;;0.30;;
19199;SDS011;9732;52.498;5.408;2022-08-05T10:58:30;1.13;;;0.40;;
19199;SDS011;9732;52.498;5.408;2022-08-05T11:00:56;2.42;;;0.40;;
19199;SDS011;9732;52.498;5.408;2022-08-05T11:03:23;0.93;;;0.60;;
19199;SDS011;9732;52.498;5.408;2022-08-05T11:06:04;0.63;;;0.40;;
19199;SDS011;9732;52.498;5.408;2022-08-05T11:08:33;4.88;;;0.40;;
19199;SDS011;9732;52.498;5.408;2022-08-05T11:14:01;3.10;;;0.40;;
19199;SDS011;9732;52.498;5.408;2022-08-05T11:16:29;1.33;;;0.40;;
19199;SDS011;9732;52.498;5.408;2022-08-05T11:21:52;2.38;;;1.20;;
19199;SDS011;9732;52.498;5.408;2022-08-05T11:24:19;1.55;;;0.28;;
19199;SDS011;9732;52.498;5.408;2022-08-05T11:26:48;0.85;;;0.40;;
19199;SDS011;9732;52.498;5.408;2022-08-05T11:32:24;1.38;;;0.40;;
19199;SDS011;9732;52.498;5.408;2022-08-05T11:34:52;3.53;;;0.63;;
19199;SDS011;9732;52.498;5.408;2022-08-05T11:37:40;2.13;;;0.40;;
19199;SDS011;9732;52.498;5.408;2022-08-05T11:40:08;1.63;;;0.50;;
19199;SDS011;9732;52.498;5.408;2022-08-05T11:42:35;0.90;;;0.52;;
19199;SDS011;9732;52.498;5.408;2022-08-05T11:45:12;2.17;;;0.40;;
19199;SDS011;9732;52.498;5.408;2022-08-05T11:47:39;0.85;;;0.57;;
19199;SDS011;9732;52.498;5.408;2022-08-05T11:50:06;0.77;;;0.50;;
19199;SDS011;9732;52.498;5.408;2022-08-05T11:52:33;3.92;;;0.50;;
19199;SDS011;9732;52.498;5.408;2022-08-05T11:55:03;0.35;;;0.22;;
19199;SDS011;9732;52.498;5.408;2022-08-05T11:57:30;1.38;;;0.50;;
19199;SDS011;9732;52.498;5.408;2022-08-05T11:59:57;1.02;;;0.40;;
19199;SDS011;9732;52.498;5.408;2022-08-05T12:02:26;0.35;;;0.35;;
19199;SDS011;9732;52.498;5.408;2022-08-05T12:04:55;2.33;;;0.50;;
19199;SDS011;9732;52.498;5.408;2022-08-05T12:07:23;1.02;;;0.40;;
19199;SDS011;9732;52.498;5.408;2022-08-05T12:09:51;4.72;;;0.70;;
19199;SDS011;9732;52.498;5.408;2022-08-05T12:12:22;1.00;;;0.40;;
19199;SDS011;9732;52.498;5.408;2022-08-05T12:14:49;2.55;;;0.50;;
19199;SDS011;9732;52.498;5.408;2022-08-05T12:17:16;2.22;;;0.60;;
19199;SDS011;9732;52.498;5.408;2022-08-05T12:19:46;2.95;;;0.40;;
19199;SDS011;9732;52.498;5.408;2022-08-05T12:22:15;2.67;;;0.40;;
19199;SDS011;9732;52.498;5.408;2022-08-05T12:24:44;3.65;;;0.55;;
19199;SDS011;9732;52.498;5.408;2022-08-05T12:27:18;1.98;;;0.50;;
19199;SDS011;9732;52.498;5.408;2022-08-05T12:29:45;2.50;;;0.47;;
19199;SDS011;9732;52.498;5.408;2022-08-05T12:32:23;1.83;;;0.73;;
19199;SDS011;9732;52.498;5.408;2022-08-05T12:34:51;2.30;;;0.65;;
19199;SDS011;9732;52.498;5.408;2022-08-05T12:37:18;0.68;;;0.35;;
19199;SDS011;9732;52.498;5.408;2022-08-05T12:39:45;2.42;;;0.55;;
19199;SDS011;9732;52.498;5.408;2022-08-05T12:42:12;2.20;;;0.50;;
19199;SDS011;9732;52.498;5.408;2022-08-05T12:44:41;2.65;;;0.63;;
19199;SDS011;9732;52.498;5.408;2022-08-05T12:47:10;2.17;;;0.60;;
19199;SDS011;9732;52.498;5.408;2022-08-05T12:49:40;0.90;;;0.50;;
19199;SDS011;9732;52.498;5.408;2022-08-05T12:52:13;2.65;;;0.60;;
19199;SDS011;9732;52.498;5.408;2022-08-05T12:54:41;1.80;;;0.50;;
19199;SDS011;9732;52.498;5.408;2022-08-05T12:57:09;2.00;;;0.45;;
19199;SDS011;9732;52.498;5.408;2022-08-05T12:59:44;1.38;;;0.47;;
19199;SDS011;9732;52.498;5.408;2022-08-05T13:02:14;1.38;;;0.50;;
19199;SDS011;9732;52.498;5.408;2022-08-05T13:04:43;5.13;;;0.60;;
19199;SDS011;9732;52.498;5.408;2022-08-05T13:07:11;2.30;;;0.60;;
19199;SDS011;9732;52.498;5.408;2022-08-05T13:09:41;1.02;;;0.43;;
19199;SDS011;9732;52.498;5.408;2022-08-05T13:12:13;4.05;;;0.65;;
19199;SDS011;9732;52.498;5.408;2022-08-05T13:14:42;1.40;;;0.65;;
19199;SDS011;9732;52.498;5.408;2022-08-05T13:17:15;0.68;;;0.55;;
19199;SDS011;9732;52.498;5.408;2022-08-05T13:19:56;2.47;;;0.43;;
19199;SDS011;9732;52.498;5.408;2022-08-05T13:22:25;0.40;;;0.38;;
19199;SDS011;9732;52.498;5.408;2022-08-05T13:24:52;2.88;;;0.57;;
19199;SDS011;9732;52.498;5.408;2022-08-05T13:27:23;4.13;;;0.50;;
19199;SDS011;9732;52.498;5.408;2022-08-05T13:29:50;2.83;;;0.43;;
19199;SDS011;9732;52.498;5.408;2022-08-05T13:32:17;3.10;;;0.40;;
19199;SDS011;9732;52.498;5.408;2022-08-05T13:34:45;4.03;;;0.52;;
19199;SDS011;9732;52.498;5.408;2022-08-05T13:37:11;2.15;;;0.60;;
19199;SDS011;9732;52.498;5.408;2022-08-05T13:39:39;0.63;;;0.50;;
19199;SDS011;9732;52.498;5.408;2022-08-05T13:42:07;0.70;;;0.35;;
19199;SDS011;9732;52.498;5.408;2022-08-05T13:44:34;1.48;;;0.40;;
19199;SDS011;9732;52.498;5.408;2022-08-05T13:47:00;4.28;;;0.70;;
19199;SDS011;9732;52.498;5.408;2022-08-05T13:49:27;1.38;;;0.50;;
19199;SDS011;9732;52.498;5.408;2022-08-05T13:51:54;4.97;;;1.17;;
19199;SDS011;9732;52.498;5.408;2022-08-05T13:54:21;4.53;;;0.80;;
19199;SDS011;9732;52.498;5.408;2022-08-05T13:56:51;3.08;;;0.82;;
19199;SDS011;9732;52.498;5.408;2022-08-05T13:59:18;4.97;;;0.80;;
19199;SDS011;9732;52.498;5.408;2022-08-05T14:01:45;2.30;;;0.93;;
19199;SDS011;9732;52.498;5.408;2022-08-05T14:04:12;2.15;;;0.63;;
19199;SDS011;9732;52.498;5.408;2022-08-05T14:06:56;1.98;;;0.60;;
19199;SDS011;9732;52.498;5.408;2022-08-05T14:09:23;2.28;;;0.57;;
19199;SDS011;9732;52.498;5.408;2022-08-05T14:11:50;1.85;;;0.50;;
19199;SDS011;9732;52.498;5.408;2022-08-05T14:14:18;1.10;;;0.40;;
19199;SDS011;9732;52.498;5.408;2022-08-05T14:16:44;2.85;;;0.45;;
19199;SDS011;9732;52.498;5.408;2022-08-05T14:19:11;4.65;;;0.68;;
19199;SDS011;9732;52.498;5.408;2022-08-05T14:21:38;7.65;;;1.27;;
19199;SDS011;9732;52.498;5.408;2022-08-05T14:24:04;1.73;;;0.70;;
19199;SDS011;9732;52.498;5.408;2022-08-05T14:26:33;1.05;;;0.40;;
19199;SDS011;9732;52.498;5.408;2022-08-05T14:29:02;0.40;;;0.30;;
19199;SDS011;9732;52.498;5.408;2022-08-05T14:31:31;1.05;;;0.40;;
19199;SDS011;9732;52.498;5.408;2022-08-05T14:33:58;3.50;;;0.57;;
19199;SDS011;9732;52.498;5.408;2022-08-05T14:36:25;0.57;;;0.30;;
19199;SDS011;9732;52.498;5.408;2022-08-05T14:38:52;2.83;;;0.38;;
19199;SDS011;9732;52.498;5.408;2022-08-05T14:41:18;2.92;;;0.50;;
19199;SDS011;9732;52.498;5.408;2022-08-05T14:43:45;1.85;;;0.63;;
19199;SDS011;9732;52.498;5.408;2022-08-05T14:46:13;3.00;;;0.60;;
19199;SDS011;9732;52.498;5.408;2022-08-05T14:48:40;2.47;;;0.65;;
19199;SDS011;9732;52.498;5.408;2022-08-05T14:51:07;1.38;;;0.40;;
19199;SDS011;9732;52.498;5.408;2022-08-05T14:53:34;2.83;;;0.40;;
19199;SDS011;9732;52.498;5.408;2022-08-05T14:56:01;1.95;;;0.60;;
19199;SDS011;9732;52.498;5.408;2022-08-05T14:58:27;1.08;;;0.43;;
19199;SDS011;9732;52.498;5.408;2022-08-05T15:00:54;4.32;;;0.68;;
19199;SDS011;9732;52.498;5.408;2022-08-05T15:03:22;3.33;;;0.68;;
19199;SDS011;9732;52.498;5.408;2022-08-05T15:05:50;2.72;;;0.70;;
19199;SDS011;9732;52.498;5.408;2022-08-05T15:08:17;1.88;;;0.45;;
19199;SDS011;9732;52.498;5.408;2022-08-05T15:10:44;1.67;;;0.40;;
19199;SDS011;9732;52.498;5.408;2022-08-05T15:13:10;1.40;;;0.52;;
19199;SDS011;9732;52.498;5.408;2022-08-05T15:15:37;0.60;;;0.57;;
19199;SDS011;9732;52.498;5.408;2022-08-05T15:18:04;0.90;;;0.50;;
19199;SDS011;9732;52.498;5.408;2022-08-05T15:20:35;3.90;;;0.70;;